sensor_id;sensor_type;location;lat;lon;timestamp;P1;durP1;ratioP1;P2;durP2;ratioP2
20207;SDS011;10263;48.716;8.760;2023-05-10T00:00:02;0.40;;;0.40;;
20207;SDS011;10263;48.716;8.760;2023-05-10T00:02:38;0.60;;;0.20;;
20207;SDS011;10263;48.716;8.760;2023-05-10T00:05:05;1.60;;;0.40;;
20207;SDS011;10263;48.716;8.760;2023-05-10T00:07:33;0.23;;;0.23;;
20207;SDS011;10263;48.716;8.760;2023-05-10T00:09:59;0.20;;;0.20;;
20207;SDS011;10263;48.716;8.760;2023-05-10T00:12:26;0.23;;;0.23;;
20207;SDS011;10263;48.716;8.760;2023-05-10T00:14:55;0.33;;;0.27;;
20207;SDS011;10263;48.716;8.760;2023-05-10T00:17:21;0.20;;;0.20;;
20207;SDS011;10263;48.716;8.760;2023-05-10T00:19:48;0.47;;;0.30;;
20207;SDS011;10263;48.716;8.760;2023-05-10T00:22:15;1.70;;;0.27;;
20207;SDS011;10263;48.716;8.760;2023-05-10T00:24:42;1.07;;;0.27;;
20207;SDS011;10263;48.716;8.760;2023-05-10T00:27:09;1.73;;;0.33;;
20207;SDS011;10263;48.716;8.760;2023-05-10T00:29:36;0.23;;;0.23;;
20207;SDS011;10263;48.716;8.760;2023-05-10T00:32:04;0.50;;;0.40;;
20207;SDS011;10263;48.716;8.760;2023-05-10T00:34:31;0.30;;;0.30;;
20207;SDS011;10263;48.716;8.760;2023-05-10T00:36:58;1.43;;;0.30;;
20207;SDS011;10263;48.716;8.760;2023-05-10T00:39:25;1.43;;;0.27;;
20207;SDS011;10263;48.716;8.760;2023-05-10T00:41:53;0.57;;;0.30;;
20207;SDS011;10263;48.716;8.760;2023-05-10T00:44:20;0.30;;;0.30;;
20207;SDS011;10263;48.716;8.760;2023-05-10T00:46:48;0.83;;;0.20;;
20207;SDS011;10263;48.716;8.760;2023-05-10T00:49:17;1.40;;;0.30;;
20207;SDS011;10263;48.716;8.760;2023-05-10T00:51:44;0.97;;;0.30;;
20207;SDS011;10263;48.716;8.760;2023-05-10T00:54:12;2.20;;;0.30;;
20207;SDS011;10263;48.716;8.760;2023-05-10T00:56:40;0.87;;;0.47;;
20207;SDS011;10263;48.716;8.760;2023-05-10T00:59:08;0.50;;;0.30;;
20207;SDS011;10263;48.716;8.760;2023-05-10T01:01:36;0.77;;;0.40;;
20207;SDS011;10263;48.716;8.760;2023-05-10T01:04:04;0.50;;;0.40;;
20207;SDS011;10263;48.716;8.760;2023-05-10T01:06:32;0.60;;;0.40;;
20207;SDS011;10263;48.716;8.760;2023-05-10T01:08:58;1.33;;;0.40;;
20207;SDS011;10263;48.716;8.760;2023-05-10T01:11:25;0.40;;;0.40;;
20207;SDS011;10263;48.716;8.760;2023-05-10T01:13:54;0.80;;;0.43;;
20207;SDS011;10263;48.716;8.760;2023-05-10T01:16:22;1.47;;;0.30;;
20207;SDS011;10263;48.716;8.760;2023-05-10T01:18:50;2.43;;;0.40;;
20207;SDS011;10263;48.716;8.760;2023-05-10T01:21:21;0.70;;;0.40;;
20207;SDS011;10263;48.716;8.760;2023-05-10T01:30:08;0.33;;;0.33;;
20207;SDS011;10263;48.716;8.760;2023-05-10T01:32:53;3.13;;;0.47;;
20207;SDS011;10263;48.716;8.760;2023-05-10T01:35:26;0.60;;;0.60;;
20207;SDS011;10263;48.716;8.760;2023-05-10T01:38:03;1.07;;;0.70;;
20207;SDS011;10263;48.716;8.760;2023-05-10T01:40:35;0.30;;;0.30;;
20207;SDS011;10263;48.716;8.760;2023-05-10T01:43:10;1.27;;;0.73;;
20207;SDS011;10263;48.716;8.760;2023-05-10T01:45:41;0.53;;;0.53;;
20207;SDS011;10263;48.716;8.760;2023-05-10T01:48:18;0.50;;;0.50;;
20207;SDS011;10263;48.716;8.760;2023-05-10T01:50:45;0.50;;;0.50;;
20207;SDS011;10263;48.716;8.760;2023-05-10T01:53:14;0.97;;;0.53;;
20207;SDS011;10263;48.716;8.760;2023-05-10T01:55:46;0.87;;;0.60;;
20207;SDS011;10263;48.716;8.760;2023-05-10T01:58:14;2.50;;;0.70;;
20207;SDS011;10263;48.716;8.760;2023-05-10T02:00:49;0.70;;;0.70;;
20207;SDS011;10263;48.716;8.760;2023-05-10T02:03:20;0.70;;;0.60;;
20207;SDS011;10263;48.716;8.760;2023-05-10T02:05:49;1.17;;;0.70;;
20207;SDS011;10263;48.716;8.760;2023-05-10T02:08:20;1.43;;;0.70;;
20207;SDS011;10263;48.716;8.760;2023-05-10T02:10:49;0.80;;;0.80;;
20207;SDS011;10263;48.716;8.760;2023-05-10T02:13:17;0.80;;;0.70;;
20207;SDS011;10263;48.716;8.760;2023-05-10T02:15:45;1.37;;;0.70;;
20207;SDS011;10263;48.716;8.760;2023-05-10T02:18:14;2.10;;;0.80;;
20207;SDS011;10263;48.716;8.760;2023-05-10T02:20:44;1.00;;;0.90;;
20207;SDS011;10263;48.716;8.760;2023-05-10T02:23:14;2.67;;;1.00;;
20207;SDS011;10263;48.716;8.760;2023-05-10T02:25:43;1.10;;;1.00;;
20207;SDS011;10263;48.716;8.760;2023-05-10T02:28:11;3.47;;;3.10;;
20207;SDS011;10263;48.716;8.760;2023-05-10T02:30:38;1.27;;;0.90;;
20207;SDS011;10263;48.716;8.760;2023-05-10T02:33:06;2.30;;;1.00;;
20207;SDS011;10263;48.716;8.760;2023-05-10T02:35:34;1.27;;;1.17;;
20207;SDS011;10263;48.716;8.760;2023-05-10T02:38:03;1.20;;;1.10;;
20207;SDS011;10263;48.716;8.760;2023-05-10T02:40:32;1.13;;;1.00;;
20207;SDS011;10263;48.716;8.760;2023-05-10T02:43:00;1.50;;;1.40;;
20207;SDS011;10263;48.716;8.760;2023-05-10T02:45:30;1.30;;;1.20;;
20207;SDS011;10263;48.716;8.760;2023-05-10T02:47:58;1.70;;;1.13;;
20207;SDS011;10263;48.716;8.760;2023-05-10T02:50:25;1.20;;;1.10;;
20207;SDS011;10263;48.716;8.760;2023-05-10T02:52:54;1.73;;;0.90;;
20207;SDS011;10263;48.716;8.760;2023-05-10T02:55:31;0.97;;;0.97;;
20207;SDS011;10263;48.716;8.760;2023-05-10T02:58:01;1.90;;;1.50;;
20207;SDS011;10263;48.716;8.760;2023-05-10T03:00:28;2.17;;;1.40;;
20207;SDS011;10263;48.716;8.760;2023-05-10T03:02:55;1.60;;;1.50;;
20207;SDS011;10263;48.716;8.760;2023-05-10T03:05:23;2.70;;;1.17;;
20207;SDS011;10263;48.716;8.760;2023-05-10T03:07:51;1.10;;;1.00;;
20207;SDS011;10263;48.716;8.760;2023-05-10T03:10:18;1.33;;;1.23;;
20207;SDS011;10263;48.716;8.760;2023-05-10T03:12:55;2.63;;;1.50;;
20207;SDS011;10263;48.716;8.760;2023-05-10T03:15:33;1.50;;;1.40;;
20207;SDS011;10263;48.716;8.760;2023-05-10T03:18:09;1.37;;;1.07;;
20207;SDS011;10263;48.716;8.760;2023-05-10T03:20:41;1.40;;;1.30;;
20207;SDS011;10263;48.716;8.760;2023-05-10T03:23:12;1.60;;;1.27;;
20207;SDS011;10263;48.716;8.760;2023-05-10T03:25:42;3.53;;;1.40;;
20207;SDS011;10263;48.716;8.760;2023-05-10T03:28:12;1.30;;;1.20;;
20207;SDS011;10263;48.716;8.760;2023-05-10T03:30:41;1.50;;;1.40;;
20207;SDS011;10263;48.716;8.760;2023-05-10T03:33:10;2.67;;;1.10;;
20207;SDS011;10263;48.716;8.760;2023-05-10T03:35:40;1.30;;;1.20;;
20207;SDS011;10263;48.716;8.760;2023-05-10T03:38:09;1.97;;;1.20;;
20207;SDS011;10263;48.716;8.760;2023-05-10T03:40:36;1.53;;;1.20;;
20207;SDS011;10263;48.716;8.760;2023-05-10T03:43:03;1.17;;;1.07;;
20207;SDS011;10263;48.716;8.760;2023-05-10T03:45:32;1.40;;;1.30;;
20207;SDS011;10263;48.716;8.760;2023-05-10T03:47:58;1.40;;;1.30;;
20207;SDS011;10263;48.716;8.760;2023-05-10T03:50:25;1.30;;;1.20;;
20207;SDS011;10263;48.716;8.760;2023-05-10T03:52:52;1.80;;;1.30;;
20207;SDS011;10263;48.716;8.760;2023-05-10T03:55:19;1.37;;;1.20;;
20207;SDS011;10263;48.716;8.760;2023-05-10T03:57:47;2.07;;;1.70;;
20207;SDS011;10263;48.716;8.760;2023-05-10T04:00:15;1.50;;;1.40;;
20207;SDS011;10263;48.716;8.760;2023-05-10T04:02:43;2.57;;;1.93;;
20207;SDS011;10263;48.716;8.760;2023-05-10T04:05:15;3.17;;;1.80;;
20207;SDS011;10263;48.716;8.760;2023-05-10T04:07:42;2.00;;;1.63;;
20207;SDS011;10263;48.716;8.760;2023-05-10T04:10:10;1.43;;;1.30;;
20207;SDS011;10263;48.716;8.760;2023-05-10T04:12:37;2.77;;;1.67;;
20207;SDS011;10263;48.716;8.760;2023-05-10T04:15:04;1.60;;;1.50;;
20207;SDS011;10263;48.716;8.760;2023-05-10T04:17:31;1.57;;;1.47;;
20207;SDS011;10263;48.716;8.760;2023-05-10T04:20:00;1.27;;;1.17;;
20207;SDS011;10263;48.716;8.760;2023-05-10T04:22:26;1.40;;;1.10;;
20207;SDS011;10263;48.716;8.760;2023-05-10T04:24:54;1.87;;;1.20;;
20207;SDS011;10263;48.716;8.760;2023-05-10T04:27:20;1.20;;;1.10;;
20207;SDS011;10263;48.716;8.760;2023-05-10T04:29:48;1.17;;;1.03;;
20207;SDS011;10263;48.716;8.760;2023-05-10T04:32:15;1.93;;;1.50;;
20207;SDS011;10263;48.716;8.760;2023-05-10T04:34:42;1.57;;;1.40;;
20207;SDS011;10263;48.716;8.760;2023-05-10T04:37:10;4.63;;;1.23;;
20207;SDS011;10263;48.716;8.760;2023-05-10T04:39:37;1.67;;;1.50;;
20207;SDS011;10263;48.716;8.760;2023-05-10T04:42:04;1.50;;;1.40;;
20207;SDS011;10263;48.716;8.760;2023-05-10T04:44:32;2.67;;;1.40;;
20207;SDS011;10263;48.716;8.760;2023-05-10T04:46:59;1.30;;;1.20;;
20207;SDS011;10263;48.716;8.760;2023-05-10T04:49:27;2.40;;;1.20;;
20207;SDS011;10263;48.716;8.760;2023-05-10T04:51:54;1.50;;;1.40;;
20207;SDS011;10263;48.716;8.760;2023-05-10T04:54:22;1.20;;;1.10;;
20207;SDS011;10263;48.716;8.760;2023-05-10T04:56:49;1.10;;;1.00;;
20207;SDS011;10263;48.716;8.760;2023-05-10T04:59:16;1.50;;;1.40;;
20207;SDS011;10263;48.716;8.760;2023-05-10T05:01:43;1.40;;;1.30;;
20207;SDS011;10263;48.716;8.760;2023-05-10T05:04:09;1.33;;;1.23;;
20207;SDS011;10263;48.716;8.760;2023-05-10T05:06:36;1.73;;;1.60;;
20207;SDS011;10263;48.716;8.760;2023-05-10T05:09:03;1.40;;;1.30;;
20207;SDS011;10263;48.716;8.760;2023-05-10T05:11:31;1.57;;;1.47;;
20207;SDS011;10263;48.716;8.760;2023-05-10T05:13:58;2.23;;;1.73;;
20207;SDS011;10263;48.716;8.760;2023-05-10T05:16:25;3.63;;;1.60;;
20207;SDS011;10263;48.716;8.760;2023-05-10T05:18:52;1.53;;;1.43;;
20207;SDS011;10263;48.716;8.760;2023-05-10T05:21:19;2.63;;;1.90;;
20207;SDS011;10263;48.716;8.760;2023-05-10T05:23:46;1.90;;;1.70;;
20207;SDS011;10263;48.716;8.760;2023-05-10T05:26:13;1.93;;;1.80;;
20207;SDS011;10263;48.716;8.760;2023-05-10T05:28:41;1.67;;;1.47;;
20207;SDS011;10263;48.716;8.760;2023-05-10T05:31:08;1.50;;;1.40;;
20207;SDS011;10263;48.716;8.760;2023-05-10T05:33:35;1.60;;;1.50;;
20207;SDS011;10263;48.716;8.760;2023-05-10T05:36:02;3.70;;;1.80;;
20207;SDS011;10263;48.716;8.760;2023-05-10T05:38:30;2.43;;;1.50;;
20207;SDS011;10263;48.716;8.760;2023-05-10T05:40:57;8.83;;;3.40;;
20207;SDS011;10263;48.716;8.760;2023-05-10T05:43:23;2.20;;;1.87;;
20207;SDS011;10263;48.716;8.760;2023-05-10T05:45:53;2.20;;;2.00;;
20207;SDS011;10263;48.716;8.760;2023-05-10T05:48:20;2.37;;;1.57;;
20207;SDS011;10263;48.716;8.760;2023-05-10T05:50:47;3.50;;;2.07;;
20207;SDS011;10263;48.716;8.760;2023-05-10T05:53:14;2.13;;;1.60;;
20207;SDS011;10263;48.716;8.760;2023-05-10T05:55:50;3.47;;;1.90;;
20207;SDS011;10263;48.716;8.760;2023-05-10T05:58:17;1.80;;;1.70;;
20207;SDS011;10263;48.716;8.760;2023-05-10T06:00:44;2.70;;;1.77;;
20207;SDS011;10263;48.716;8.760;2023-05-10T06:03:12;2.00;;;1.80;;
20207;SDS011;10263;48.716;8.760;2023-05-10T06:05:39;2.10;;;1.70;;
20207;SDS011;10263;48.716;8.760;2023-05-10T06:08:06;3.27;;;1.40;;
20207;SDS011;10263;48.716;8.760;2023-05-10T06:10:33;5.10;;;1.80;;
20207;SDS011;10263;48.716;8.760;2023-05-10T06:12:59;1.60;;;1.50;;
20207;SDS011;10263;48.716;8.760;2023-05-10T06:15:26;3.23;;;1.60;;
20207;SDS011;10263;48.716;8.760;2023-05-10T06:17:53;3.97;;;1.50;;
20207;SDS011;10263;48.716;8.760;2023-05-10T06:20:21;1.60;;;1.50;;
20207;SDS011;10263;48.716;8.760;2023-05-10T06:22:48;1.80;;;1.70;;
20207;SDS011;10263;48.716;8.760;2023-05-10T06:25:15;2.83;;;1.90;;
20207;SDS011;10263;48.716;8.760;2023-05-10T06:27:43;2.33;;;1.60;;
20207;SDS011;10263;48.716;8.760;2023-05-10T06:30:10;2.97;;;1.50;;
20207;SDS011;10263;48.716;8.760;2023-05-10T06:32:38;2.37;;;1.60;;
20207;SDS011;10263;48.716;8.760;2023-05-10T06:35:05;2.13;;;1.50;;
20207;SDS011;10263;48.716;8.760;2023-05-10T06:37:34;1.80;;;1.10;;
20207;SDS011;10263;48.716;8.760;2023-05-10T06:40:01;2.30;;;1.50;;
20207;SDS011;10263;48.716;8.760;2023-05-10T06:42:28;1.27;;;1.17;;
20207;SDS011;10263;48.716;8.760;2023-05-10T06:44:56;1.30;;;1.20;;
20207;SDS011;10263;48.716;8.760;2023-05-10T06:47:22;3.27;;;1.20;;
20207;SDS011;10263;48.716;8.760;2023-05-10T06:49:49;1.45;;;1.00;;
20207;SDS011;10263;48.716;8.760;2023-05-10T06:52:16;1.57;;;1.30;;
20207;SDS011;10263;48.716;8.760;2023-05-10T06:54:44;0.90;;;0.90;;
20207;SDS011;10263;48.716;8.760;2023-05-10T06:57:11;3.13;;;1.07;;
20207;SDS011;10263;48.716;8.760;2023-05-10T06:59:38;2.20;;;1.20;;
20207;SDS011;10263;48.716;8.760;2023-05-10T07:02:04;2.35;;;0.80;;
20207;SDS011;10263;48.716;8.760;2023-05-10T07:04:31;0.98;;;0.88;;
20207;SDS011;10263;48.716;8.760;2023-05-10T07:06:58;2.30;;;0.90;;
20207;SDS011;10263;48.716;8.760;2023-05-10T07:09:25;0.65;;;0.50;;
20207;SDS011;10263;48.716;8.760;2023-05-10T07:11:53;0.88;;;0.85;;
20207;SDS011;10263;48.716;8.760;2023-05-10T07:14:22;0.70;;;0.70;;
20207;SDS011;10263;48.716;8.760;2023-05-10T07:16:49;0.60;;;0.60;;
20207;SDS011;10263;48.716;8.760;2023-05-10T07:19:16;0.53;;;0.53;;
20207;SDS011;10263;48.716;8.760;2023-05-10T07:21:43;0.60;;;0.60;;
20207;SDS011;10263;48.716;8.760;2023-05-10T07:24:10;0.70;;;0.60;;
20207;SDS011;10263;48.716;8.760;2023-05-10T07:26:37;1.07;;;0.70;;
20207;SDS011;10263;48.716;8.760;2023-05-10T07:29:05;3.63;;;0.70;;
20207;SDS011;10263;48.716;8.760;2023-05-10T07:31:32;2.20;;;0.90;;
20207;SDS011;10263;48.716;8.760;2023-05-10T07:33:58;0.95;;;0.50;;
20207;SDS011;10263;48.716;8.760;2023-05-10T07:36:25;0.65;;;0.65;;
20207;SDS011;10263;48.716;8.760;2023-05-10T07:38:52;0.60;;;0.60;;
20207;SDS011;10263;48.716;8.760;2023-05-10T07:41:20;2.45;;;0.45;;
20207;SDS011;10263;48.716;8.760;2023-05-10T07:43:47;0.80;;;0.60;;
20207;SDS011;10263;48.716;8.760;2023-05-10T07:46:15;1.27;;;0.63;;
20207;SDS011;10263;48.716;8.760;2023-05-10T07:48:42;1.17;;;0.57;;
20207;SDS011;10263;48.716;8.760;2023-05-10T07:51:09;0.93;;;0.50;;
20207;SDS011;10263;48.716;8.760;2023-05-10T07:53:35;1.17;;;0.47;;
20207;SDS011;10263;48.716;8.760;2023-05-10T07:58:50;0.40;;;0.40;;
20207;SDS011;10263;48.716;8.760;2023-05-10T08:01:19;0.65;;;0.45;;
20207;SDS011;10263;48.716;8.760;2023-05-10T08:03:46;0.50;;;0.30;;
20207;SDS011;10263;48.716;8.760;2023-05-10T08:06:13;0.50;;;0.40;;
20207;SDS011;10263;48.716;8.760;2023-05-10T08:08:40;0.52;;;0.38;;
20207;SDS011;10263;48.716;8.760;2023-05-10T08:11:07;0.57;;;0.47;;
20207;SDS011;10263;48.716;8.760;2023-05-10T08:13:34;0.70;;;0.50;;
20207;SDS011;10263;48.716;8.760;2023-05-10T08:16:01;1.52;;;0.50;;
20207;SDS011;10263;48.716;8.760;2023-05-10T08:18:29;0.60;;;0.40;;
20207;SDS011;10263;48.716;8.760;2023-05-10T08:20:56;0.60;;;0.40;;
20207;SDS011;10263;48.716;8.760;2023-05-10T08:23:22;1.05;;;0.50;;
20207;SDS011;10263;48.716;8.760;2023-05-10T08:25:49;0.55;;;0.38;;
20207;SDS011;10263;48.716;8.760;2023-05-10T08:28:16;0.63;;;0.40;;
20207;SDS011;10263;48.716;8.760;2023-05-10T08:30:43;0.50;;;0.35;;
20207;SDS011;10263;48.716;8.760;2023-05-10T08:33:09;1.38;;;0.57;;
20207;SDS011;10263;48.716;8.760;2023-05-10T08:35:37;0.30;;;0.30;;
20207;SDS011;10263;48.716;8.760;2023-05-10T08:38:04;0.30;;;0.30;;
20207;SDS011;10263;48.716;8.760;2023-05-10T08:40:31;1.33;;;0.68;;
20207;SDS011;10263;48.716;8.760;2023-05-10T08:42:58;0.60;;;0.40;;
20207;SDS011;10263;48.716;8.760;2023-05-10T08:45:31;1.63;;;0.60;;
20207;SDS011;10263;48.716;8.760;2023-05-10T08:47:59;0.40;;;0.40;;
20207;SDS011;10263;48.716;8.760;2023-05-10T08:50:28;1.75;;;0.43;;
20207;SDS011;10263;48.716;8.760;2023-05-10T08:52:59;0.40;;;0.40;;
20207;SDS011;10263;48.716;8.760;2023-05-10T08:55:27;0.88;;;0.55;;
20207;SDS011;10263;48.716;8.760;2023-05-10T08:57:54;0.63;;;0.40;;
20207;SDS011;10263;48.716;8.760;2023-05-10T09:00:21;0.70;;;0.50;;
20207;SDS011;10263;48.716;8.760;2023-05-10T09:02:49;1.02;;;0.50;;
20207;SDS011;10263;48.716;8.760;2023-05-10T09:05:16;1.60;;;0.40;;
20207;SDS011;10263;48.716;8.760;2023-05-10T09:07:42;0.57;;;0.30;;
20207;SDS011;10263;48.716;8.760;2023-05-10T09:10:11;0.38;;;0.35;;
20207;SDS011;10263;48.716;8.760;2023-05-10T09:12:40;0.30;;;0.30;;
20207;SDS011;10263;48.716;8.760;2023-05-10T09:15:09;0.65;;;0.40;;
20207;SDS011;10263;48.716;8.760;2023-05-10T09:17:36;0.73;;;0.43;;
20207;SDS011;10263;48.716;8.760;2023-05-10T09:20:06;0.52;;;0.40;;
20207;SDS011;10263;48.716;8.760;2023-05-10T09:22:33;0.77;;;0.50;;
20207;SDS011;10263;48.716;8.760;2023-05-10T09:25:04;0.85;;;0.40;;
20207;SDS011;10263;48.716;8.760;2023-05-10T09:27:34;0.70;;;0.40;;
20207;SDS011;10263;48.716;8.760;2023-05-10T09:30:01;0.40;;;0.40;;
20207;SDS011;10263;48.716;8.760;2023-05-10T09:35:14;0.55;;;0.40;;
20207;SDS011;10263;48.716;8.760;2023-05-10T09:37:43;0.40;;;0.40;;
20207;SDS011;10263;48.716;8.760;2023-05-10T09:40:13;1.85;;;0.55;;
20207;SDS011;10263;48.716;8.760;2023-05-10T09:42:52;0.68;;;0.68;;
20207;SDS011;10263;48.716;8.760;2023-05-10T09:45:20;0.88;;;0.60;;
20207;SDS011;10263;48.716;8.760;2023-05-10T09:47:47;0.50;;;0.50;;
20207;SDS011;10263;48.716;8.760;2023-05-10T09:50:14;0.68;;;0.68;;
20207;SDS011;10263;48.716;8.760;2023-05-10T09:52:48;0.68;;;0.30;;
20207;SDS011;10263;48.716;8.760;2023-05-10T09:55:16;1.75;;;0.40;;
20207;SDS011;10263;48.716;8.760;2023-05-10T09:57:46;0.73;;;0.45;;
20207;SDS011;10263;48.716;8.760;2023-05-10T10:00:17;0.50;;;0.43;;
20207;SDS011;10263;48.716;8.760;2023-05-10T10:02:45;0.52;;;0.40;;
20207;SDS011;10263;48.716;8.760;2023-05-10T10:05:14;0.82;;;0.45;;
20207;SDS011;10263;48.716;8.760;2023-05-10T10:07:41;1.50;;;0.70;;
20207;SDS011;10263;48.716;8.760;2023-05-10T10:10:08;0.50;;;0.50;;
20207;SDS011;10263;48.716;8.760;2023-05-10T10:12:37;0.73;;;0.40;;
20207;SDS011;10263;48.716;8.760;2023-05-10T10:15:07;0.55;;;0.55;;
20207;SDS011;10263;48.716;8.760;2023-05-10T10:17:36;0.88;;;0.60;;
20207;SDS011;10263;48.716;8.760;2023-05-10T10:20:03;2.75;;;0.35;;
20207;SDS011;10263;48.716;8.760;2023-05-10T10:22:31;1.27;;;0.20;;
20207;SDS011;10263;48.716;8.760;2023-05-10T10:24:58;0.75;;;0.50;;
20207;SDS011;10263;48.716;8.760;2023-05-10T10:27:26;1.27;;;0.30;;
20207;SDS011;10263;48.716;8.760;2023-05-10T10:30:04;1.00;;;0.40;;
20207;SDS011;10263;48.716;8.760;2023-05-10T10:32:44;2.45;;;0.40;;
20207;SDS011;10263;48.716;8.760;2023-05-10T10:35:26;1.10;;;0.38;;
20207;SDS011;10263;48.716;8.760;2023-05-10T10:37:55;0.65;;;0.50;;
20207;SDS011;10263;48.716;8.760;2023-05-10T10:40:22;0.70;;;0.40;;
20207;SDS011;10263;48.716;8.760;2023-05-10T10:42:53;0.68;;;0.45;;
20207;SDS011;10263;48.716;8.760;2023-05-10T10:45:22;0.60;;;0.45;;
20207;SDS011;10263;48.716;8.760;2023-05-10T10:47:53;2.17;;;0.70;;
20207;SDS011;10263;48.716;8.760;2023-05-10T10:50:42;0.50;;;0.50;;
20207;SDS011;10263;48.716;8.760;2023-05-10T10:53:10;0.95;;;0.60;;
20207;SDS011;10263;48.716;8.760;2023-05-10T10:55:44;0.75;;;0.55;;
20207;SDS011;10263;48.716;8.760;2023-05-10T10:58:14;0.70;;;0.40;;
20207;SDS011;10263;48.716;8.760;2023-05-10T11:01:09;0.75;;;0.60;;
20207;SDS011;10263;48.716;8.760;2023-05-10T11:03:38;0.50;;;0.50;;
20207;SDS011;10263;48.716;8.760;2023-05-10T11:06:04;1.02;;;0.50;;
20207;SDS011;10263;48.716;8.760;2023-05-10T11:08:33;1.75;;;0.52;;
20207;SDS011;10263;48.716;8.760;2023-05-10T11:11:07;1.10;;;0.50;;
20207;SDS011;10263;48.716;8.760;2023-05-10T11:13:35;0.70;;;0.47;;
20207;SDS011;10263;48.716;8.760;2023-05-10T11:16:13;0.50;;;0.40;;
20207;SDS011;10263;48.716;8.760;2023-05-10T11:18:51;1.55;;;0.80;;
20207;SDS011;10263;48.716;8.760;2023-05-10T11:21:19;1.10;;;0.80;;
20207;SDS011;10263;48.716;8.760;2023-05-10T11:23:50;1.42;;;0.70;;
20207;SDS011;10263;48.716;8.760;2023-05-10T11:26:21;0.85;;;0.47;;
20207;SDS011;10263;48.716;8.760;2023-05-10T11:28:51;0.98;;;0.52;;
20207;SDS011;10263;48.716;8.760;2023-05-10T11:31:21;3.13;;;0.77;;
20207;SDS011;10263;48.716;8.760;2023-05-10T11:33:49;0.98;;;0.60;;
20207;SDS011;10263;48.716;8.760;2023-05-10T11:36:17;1.70;;;0.80;;
20207;SDS011;10263;48.716;8.760;2023-05-10T11:38:44;0.98;;;0.70;;
20207;SDS011;10263;48.716;8.760;2023-05-10T11:41:12;0.60;;;0.60;;
20207;SDS011;10263;48.716;8.760;2023-05-10T11:43:41;0.70;;;0.70;;
20207;SDS011;10263;48.716;8.760;2023-05-10T11:46:09;0.85;;;0.47;;
20207;SDS011;10263;48.716;8.760;2023-05-10T11:48:39;1.50;;;0.70;;
20207;SDS011;10263;48.716;8.760;2023-05-10T11:51:06;1.42;;;0.70;;
20207;SDS011;10263;48.716;8.760;2023-05-10T11:53:33;0.47;;;0.47;;
20207;SDS011;10263;48.716;8.760;2023-05-10T11:56:03;2.25;;;0.73;;
20207;SDS011;10263;48.716;8.760;2023-05-10T11:58:31;0.50;;;0.40;;
20207;SDS011;10263;48.716;8.760;2023-05-10T12:00:58;1.60;;;0.70;;
20207;SDS011;10263;48.716;8.760;2023-05-10T12:03:25;0.75;;;0.63;;
20207;SDS011;10263;48.716;8.760;2023-05-10T12:05:54;0.68;;;0.60;;
20207;SDS011;10263;48.716;8.760;2023-05-10T12:08:22;3.08;;;0.70;;
20207;SDS011;10263;48.716;8.760;2023-05-10T12:10:51;1.05;;;0.60;;
20207;SDS011;10263;48.716;8.760;2023-05-10T12:13:18;2.00;;;0.65;;
20207;SDS011;10263;48.716;8.760;2023-05-10T12:15:46;1.02;;;0.70;;
20207;SDS011;10263;48.716;8.760;2023-05-10T12:18:13;5.57;;;0.85;;
20207;SDS011;10263;48.716;8.760;2023-05-10T12:20:40;1.20;;;0.50;;
20207;SDS011;10263;48.716;8.760;2023-05-10T12:23:09;1.92;;;0.57;;
20207;SDS011;10263;48.716;8.760;2023-05-10T12:25:36;0.65;;;0.47;;
20207;SDS011;10263;48.716;8.760;2023-05-10T12:28:05;0.98;;;0.60;;
20207;SDS011;10263;48.716;8.760;2023-05-10T12:30:34;0.90;;;0.60;;
20207;SDS011;10263;48.716;8.760;2023-05-10T12:33:02;1.65;;;0.63;;
20207;SDS011;10263;48.716;8.760;2023-05-10T12:35:33;0.70;;;0.70;;
20207;SDS011;10263;48.716;8.760;2023-05-10T12:38:23;1.10;;;0.57;;
20207;SDS011;10263;48.716;8.760;2023-05-10T12:40:55;1.25;;;0.60;;
20207;SDS011;10263;48.716;8.760;2023-05-10T12:43:23;0.90;;;0.70;;
20207;SDS011;10263;48.716;8.760;2023-05-10T12:45:50;3.13;;;0.63;;
20207;SDS011;10263;48.716;8.760;2023-05-10T12:48:16;0.40;;;0.40;;
20207;SDS011;10263;48.716;8.760;2023-05-10T12:50:43;1.88;;;0.70;;
20207;SDS011;10263;48.716;8.760;2023-05-10T12:53:10;1.50;;;0.73;;
20207;SDS011;10263;48.716;8.760;2023-05-10T12:55:40;2.15;;;0.80;;
20207;SDS011;10263;48.716;8.760;2023-05-10T12:58:06;0.82;;;0.60;;
20207;SDS011;10263;48.716;8.760;2023-05-10T13:00:33;0.82;;;0.60;;
20207;SDS011;10263;48.716;8.760;2023-05-10T13:03:00;1.05;;;0.70;;
20207;SDS011;10263;48.716;8.760;2023-05-10T13:05:27;1.52;;;0.70;;
20207;SDS011;10263;48.716;8.760;2023-05-10T13:07:54;0.50;;;0.50;;
20207;SDS011;10263;48.716;8.760;2023-05-10T13:10:21;0.88;;;0.50;;
20207;SDS011;10263;48.716;8.760;2023-05-10T13:12:50;1.13;;;0.60;;
20207;SDS011;10263;48.716;8.760;2023-05-10T13:15:17;2.25;;;0.70;;
20207;SDS011;10263;48.716;8.760;2023-05-10T13:17:43;0.50;;;0.50;;
20207;SDS011;10263;48.716;8.760;2023-05-10T13:20:10;1.40;;;0.60;;
20207;SDS011;10263;48.716;8.760;2023-05-10T13:22:37;1.05;;;0.60;;
20207;SDS011;10263;48.716;8.760;2023-05-10T13:25:04;4.45;;;0.80;;
20207;SDS011;10263;48.716;8.760;2023-05-10T13:27:31;1.58;;;0.70;;
20207;SDS011;10263;48.716;8.760;2023-05-10T13:30:00;0.40;;;0.40;;
20207;SDS011;10263;48.716;8.760;2023-05-10T13:32:28;1.40;;;0.50;;
20207;SDS011;10263;48.716;8.760;2023-05-10T13:34:55;1.60;;;0.50;;
20207;SDS011;10263;48.716;8.760;2023-05-10T13:37:21;1.17;;;0.60;;
20207;SDS011;10263;48.716;8.760;2023-05-10T13:39:48;0.85;;;0.55;;
20207;SDS011;10263;48.716;8.760;2023-05-10T13:42:15;1.90;;;0.60;;
20207;SDS011;10263;48.716;8.760;2023-05-10T13:44:42;0.70;;;0.40;;
20207;SDS011;10263;48.716;8.760;2023-05-10T13:47:10;1.20;;;0.60;;
20207;SDS011;10263;48.716;8.760;2023-05-10T13:52:21;0.63;;;0.50;;
20207;SDS011;10263;48.716;8.760;2023-05-10T13:54:48;1.20;;;0.60;;
20207;SDS011;10263;48.716;8.760;2023-05-10T13:57:17;0.75;;;0.52;;
20207;SDS011;10263;48.716;8.760;2023-05-10T13:59:44;0.55;;;0.50;;
20207;SDS011;10263;48.716;8.760;2023-05-10T14:02:11;1.58;;;0.57;;
20207;SDS011;10263;48.716;8.760;2023-05-10T14:04:38;2.40;;;0.70;;
20207;SDS011;10263;48.716;8.760;2023-05-10T14:07:05;0.63;;;0.57;;
20207;SDS011;10263;48.716;8.760;2023-05-10T14:09:33;1.20;;;0.70;;
20207;SDS011;10263;48.716;8.760;2023-05-10T14:12:00;0.55;;;0.52;;
20207;SDS011;10263;48.716;8.760;2023-05-10T14:14:27;1.30;;;0.50;;
20207;SDS011;10263;48.716;8.760;2023-05-10T14:16:54;1.30;;;0.63;;
20207;SDS011;10263;48.716;8.760;2023-05-10T14:19:21;0.95;;;0.50;;
20207;SDS011;10263;48.716;8.760;2023-05-10T14:21:48;2.22;;;0.60;;
20207;SDS011;10263;48.716;8.760;2023-05-10T14:24:17;0.82;;;0.43;;
20207;SDS011;10263;48.716;8.760;2023-05-10T14:26:45;1.15;;;0.82;;
20207;SDS011;10263;48.716;8.760;2023-05-10T14:29:12;1.23;;;0.40;;
20207;SDS011;10263;48.716;8.760;2023-05-10T14:31:39;0.80;;;0.57;;
20207;SDS011;10263;48.716;8.760;2023-05-10T14:34:06;1.38;;;0.57;;
20207;SDS011;10263;48.716;8.760;2023-05-10T14:36:33;1.00;;;0.55;;
20207;SDS011;10263;48.716;8.760;2023-05-10T14:39:00;1.50;;;0.60;;
20207;SDS011;10263;48.716;8.760;2023-05-10T14:41:27;0.60;;;0.60;;
20207;SDS011;10263;48.716;8.760;2023-05-10T14:43:56;1.48;;;0.50;;
20207;SDS011;10263;48.716;8.760;2023-05-10T14:46:23;0.55;;;0.40;;
20207;SDS011;10263;48.716;8.760;2023-05-10T14:48:50;0.90;;;0.55;;
20207;SDS011;10263;48.716;8.760;2023-05-10T14:51:16;1.42;;;0.73;;
20207;SDS011;10263;48.716;8.760;2023-05-10T14:53:46;1.15;;;0.70;;
20207;SDS011;10263;48.716;8.760;2023-05-10T14:56:13;0.50;;;0.43;;
20207;SDS011;10263;48.716;8.760;2023-05-10T14:58:40;0.93;;;0.90;;
20207;SDS011;10263;48.716;8.760;2023-05-10T15:01:08;0.50;;;0.47;;
20207;SDS011;10263;48.716;8.760;2023-05-10T15:03:35;1.75;;;0.55;;
20207;SDS011;10263;48.716;8.760;2023-05-10T15:06:03;0.95;;;0.70;;
20207;SDS011;10263;48.716;8.760;2023-05-10T15:08:30;1.20;;;0.40;;